createdAt,value
2023-03-13T00:01:22.025Z,27.20
2023-03-13T00:03:50.577Z,27.30
2023-03-13T00:06:19.325Z,26.90
2023-03-13T00:08:47.388Z,26.90
2023-03-13T00:11:16.662Z,27.00
2023-03-13T00:13:45.438Z,27.10
2023-03-13T00:16:17.234Z,27.00
2023-03-13T00:18:49.830Z,27.10
2023-03-13T00:21:20.082Z,27.10
2023-03-13T00:23:48.682Z,27.20
2023-03-13T00:26:19.079Z,27.10
2023-03-13T00:28:47.857Z,26.50
2023-03-13T00:31:19.553Z,27.20
2023-03-13T00:33:50.201Z,26.90
2023-03-13T00:36:20.905Z,27.10
2023-03-13T00:38:49.041Z,27.20
2023-03-13T00:41:19.063Z,27.20
2023-03-13T00:43:48.389Z,27.10
2023-03-13T00:46:20.581Z,27.30
2023-03-13T00:48:48.779Z,26.90
2023-03-13T00:51:19.302Z,27.10
2023-03-13T00:53:47.729Z,27.30
2023-03-13T00:56:17.567Z,27.10
2023-03-13T00:58:47.536Z,27.20
2023-03-13T01:01:20.294Z,27.10
2023-03-13T01:03:50.545Z,27.30
2023-03-13T01:06:21.600Z,27.20
2023-03-13T01:08:50.332Z,27.00
2023-03-13T01:11:21.707Z,27.10
2023-03-13T01:13:50.361Z,27.30
2023-03-13T01:16:21.893Z,27.00
2023-03-13T01:18:52.806Z,27.10
2023-03-13T01:21:23.687Z,26.70
2023-03-13T01:23:53.274Z,27.80
2023-03-13T01:26:22.961Z,27.00
2023-03-13T01:28:51.755Z,27.10
2023-03-13T01:31:23.278Z,27.30
2023-03-13T01:33:56.107Z,27.30
2023-03-13T01:36:24.306Z,27.10
2023-03-13T01:38:55.129Z,27.30
2023-03-13T01:41:25.516Z,27.20
2023-03-13T01:43:55.329Z,27.30
2023-03-13T01:46:27.592Z,27.20
2023-03-13T01:49:01.739Z,27.20
2023-03-13T01:51:34.356Z,27.10
2023-03-13T01:54:09.142Z,27.10
2023-03-13T01:56:42.514Z,27.30
2023-03-13T01:59:15.249Z,26.90
2023-03-13T02:01:47.536Z,27.10
2023-03-13T02:04:17.200Z,27.30
2023-03-13T02:06:49.023Z,27.50
2023-03-13T02:09:21.572Z,27.00
2023-03-13T02:11:55.148Z,27.30
2023-03-13T02:14:28.240Z,27.40
2023-03-13T02:16:57.873Z,27.60
2023-03-13T02:19:32.735Z,27.50
2023-03-13T02:22:10.450Z,27.10
2023-03-13T02:24:47.504Z,27.50
2023-03-13T02:27:16.950Z,27.20
2023-03-13T02:29:45.281Z,27.10
2023-03-13T02:32:13.928Z,27.20
2023-03-13T02:34:44.477Z,27.50
2023-03-13T02:37:14.382Z,27.40
2023-03-13T02:39:47.651Z,27.40
2023-03-13T02:42:20.542Z,27.10
2023-03-13T02:44:48.702Z,27.60
2023-03-13T02:47:20.423Z,27.20
2023-03-13T02:49:48.926Z,27.70
2023-03-13T02:52:25.566Z,27.50
2023-03-13T02:54:59.129Z,27.50
2023-03-13T02:57:29.245Z,27.40
2023-03-13T02:59:57.278Z,27.00
2023-03-13T03:02:25.391Z,27.80
2023-03-13T03:04:53.369Z,27.50
2023-03-13T03:07:21.365Z,27.50
2023-03-13T03:09:49.269Z,27.80
2023-03-13T03:12:17.265Z,27.40
2023-03-13T03:14:46.569Z,27.60
2023-03-13T03:17:14.809Z,27.90
2023-03-13T03:19:42.859Z,27.80
2023-03-13T03:22:10.847Z,27.60
2023-03-13T03:24:38.799Z,27.80
2023-03-13T03:27:07.029Z,27.60
2023-03-13T03:29:35.013Z,27.60
2023-03-13T03:32:04.373Z,27.80
2023-03-13T03:34:32.381Z,27.80
2023-03-13T03:37:00.397Z,27.60
2023-03-13T03:39:28.358Z,27.60
2023-03-13T03:41:56.333Z,27.20
2023-03-13T03:44:24.341Z,27.60
2023-03-13T03:46:52.353Z,27.80
2023-03-13T03:49:21.892Z,27.90
2023-03-13T03:51:49.838Z,27.70
2023-03-13T03:54:17.876Z,27.70
2023-03-13T03:56:45.858Z,27.90
2023-03-13T03:59:13.809Z,27.80
2023-03-13T04:01:41.846Z,27.30
2023-03-13T04:04:09.900Z,27.80
2023-03-13T04:06:39.195Z,27.70
2023-03-13T04:09:07.206Z,27.70
2023-03-13T04:11:35.152Z,27.90
2023-03-13T04:14:03.176Z,28.00
2023-03-13T04:16:31.308Z,27.90
2023-03-13T04:18:59.291Z,27.90
2023-03-13T04:21:27.272Z,27.80
2023-03-13T04:23:56.582Z,28.00
2023-03-13T04:26:24.695Z,28.10
2023-03-13T04:28:52.815Z,28.10
2023-03-13T04:31:20.971Z,27.90
2023-03-13T04:33:48.992Z,27.70
2023-03-13T04:36:16.993Z,27.50
2023-03-13T04:38:45.033Z,27.60
2023-03-13T04:41:14.340Z,27.80
2023-03-13T04:43:42.390Z,27.60
2023-03-13T04:46:10.385Z,27.80
2023-03-13T04:48:38.353Z,27.60
2023-03-13T04:51:06.837Z,27.60
2023-03-13T04:53:34.831Z,27.70
2023-03-13T04:56:02.964Z,27.80
2023-03-13T04:58:32.248Z,27.50
2023-03-13T05:01:00.289Z,27.50
2023-03-13T05:03:28.223Z,27.40
2023-03-13T05:05:56.190Z,27.60
2023-03-13T05:08:24.173Z,27.70
2023-03-13T05:10:52.151Z,27.40
2023-03-13T05:13:20.069Z,27.40
2023-03-13T05:15:49.432Z,27.50
2023-03-13T05:18:17.422Z,27.40
2023-03-13T05:20:45.424Z,27.40
2023-03-13T05:23:13.445Z,27.40
2023-03-13T05:25:41.757Z,27.30
2023-03-13T05:28:09.715Z,27.30
2023-03-13T05:30:37.826Z,27.40
2023-03-13T05:33:07.170Z,27.40
2023-03-13T05:35:35.184Z,27.30
2023-03-13T05:38:03.250Z,27.10
2023-03-13T05:40:31.262Z,27.10
2023-03-13T05:42:59.594Z,27.20
2023-03-13T05:45:27.540Z,27.30
2023-03-13T05:47:55.589Z,27.40
2023-03-13T05:50:24.904Z,27.30
2023-03-13T05:52:53.069Z,27.80
2023-03-13T05:55:21.570Z,27.10
2023-03-13T05:57:50.196Z,27.30
2023-03-13T06:00:20.112Z,27.30
2023-03-13T06:02:48.129Z,27.30
2023-03-13T06:05:16.342Z,27.10
2023-03-13T06:07:45.681Z,27.30
2023-03-13T06:10:14.014Z,27.10
2023-03-13T06:12:42.028Z,27.20
2023-03-13T06:15:12.302Z,27.10
2023-03-13T06:17:40.970Z,27.20
2023-03-13T06:20:11.602Z,27.20
2023-03-13T06:22:39.652Z,27.10
2023-03-13T06:25:10.911Z,27.20
2023-03-13T06:27:38.888Z,27.10
2023-03-13T06:30:07.770Z,27.20
2023-03-13T06:32:35.939Z,27.10
2023-03-13T06:35:04.038Z,27.10
2023-03-13T06:37:31.984Z,27.10
2023-03-13T06:39:59.925Z,27.10
2023-03-13T06:42:30.254Z,27.20
2023-03-13T06:44:58.189Z,27.10
2023-03-13T06:47:26.267Z,27.10
2023-03-13T06:49:54.222Z,27.20
2023-03-13T06:52:28.748Z,27.10
2023-03-13T06:55:06.918Z,27.00
2023-03-13T06:57:36.337Z,26.60
2023-03-13T07:00:06.042Z,27.20
2023-03-13T07:02:34.017Z,27.20
2023-03-13T07:05:05.604Z,27.10
2023-03-13T07:07:33.958Z,27.30
2023-03-13T07:10:02.175Z,27.30
2023-03-13T07:12:30.307Z,27.10
2023-03-13T07:14:59.918Z,27.20
2023-03-13T07:17:27.978Z,26.90
2023-03-13T07:19:56.062Z,27.10
2023-03-13T07:22:24.073Z,27.20
2023-03-13T07:24:52.019Z,27.10
2023-03-13T07:27:20.843Z,27.10
2023-03-13T07:29:48.990Z,27.20
2023-03-13T07:32:18.609Z,27.30
2023-03-13T07:34:46.714Z,27.20
2023-03-13T07:37:15.457Z,26.80
2023-03-13T07:39:44.251Z,27.30
2023-03-13T07:42:12.649Z,27.30
2023-03-13T07:44:40.674Z,27.30
2023-03-13T07:47:09.113Z,27.30
2023-03-13T07:49:42.071Z,26.90
2023-03-13T07:52:10.455Z,27.40
2023-03-13T07:54:38.447Z,27.40
2023-03-13T07:57:06.884Z,27.40
2023-03-13T07:59:34.906Z,27.40
2023-03-13T08:02:03.358Z,27.10
2023-03-13T08:04:31.372Z,27.20
2023-03-13T08:07:00.831Z,27.20
2023-03-13T08:09:28.831Z,27.00
2023-03-13T08:11:56.852Z,27.20
2023-03-13T08:14:25.061Z,27.50
2023-03-13T08:16:53.052Z,27.30
2023-03-13T08:19:21.114Z,27.20
2023-03-13T08:21:49.082Z,27.40
2023-03-13T08:24:18.525Z,27.10
2023-03-13T08:26:46.517Z,27.20
2023-03-13T08:29:16.059Z,27.30
2023-03-13T08:31:47.367Z,26.90
2023-03-13T08:34:16.784Z,26.70
2023-03-13T08:36:45.120Z,27.40
2023-03-13T08:39:15.548Z,27.50
2023-03-13T08:41:44.865Z,27.20
2023-03-13T08:44:15.920Z,27.20
2023-03-13T08:46:44.808Z,27.20
2023-03-13T08:49:13.809Z,27.40
2023-03-13T08:51:42.041Z,27.50
2023-03-13T08:54:10.450Z,27.20
2023-03-13T08:56:38.403Z,27.20
2023-03-13T08:59:08.190Z,27.20
2023-03-13T09:01:37.882Z,27.30
2023-03-13T09:04:07.101Z,27.50
2023-03-13T09:06:36.479Z,27.40
2023-03-13T09:09:06.608Z,27.50
2023-03-13T09:11:35.681Z,27.20
2023-03-13T09:14:03.917Z,27.30
2023-03-13T09:16:35.445Z,27.30
2023-03-13T09:19:04.273Z,27.40
2023-03-13T09:21:34.780Z,27.20
2023-03-13T09:24:03.183Z,27.50
2023-03-13T09:26:31.660Z,27.30
2023-03-13T09:28:59.667Z,27.40
2023-03-13T09:31:30.089Z,27.90
2023-03-13T09:34:00.398Z,27.50
2023-03-13T09:36:29.016Z,27.60
2023-03-13T09:38:59.603Z,28.50
2023-03-13T09:41:36.133Z,27.70
2023-03-13T09:44:12.965Z,27.60
2023-03-13T09:46:46.793Z,27.70
2023-03-13T09:49:29.466Z,27.50
2023-03-13T09:52:08.488Z,27.70
2023-03-13T09:54:41.868Z,27.80
2023-03-13T09:57:21.471Z,27.50
2023-03-13T09:59:56.282Z,27.50
2023-03-13T10:02:32.099Z,27.50
2023-03-13T10:05:13.331Z,27.10
2023-03-13T10:07:41.372Z,27.00
2023-03-13T10:10:16.361Z,27.00
2023-03-13T10:12:47.674Z,26.80
2023-03-13T10:15:38.839Z,26.90
2023-03-13T10:18:20.335Z,26.80
2023-03-13T10:20:52.252Z,27.40
2023-03-13T10:23:28.335Z,26.90
2023-03-13T10:25:56.328Z,26.90
2023-03-13T10:28:24.634Z,26.70
2023-03-13T10:31:00.411Z,26.70
2023-03-13T10:33:30.647Z,26.90
2023-03-13T10:36:08.648Z,26.50
2023-03-13T10:38:49.794Z,25.50
2023-03-13T10:41:28.030Z,26.30
2023-03-13T10:44:01.642Z,26.10
2023-03-13T10:46:32.410Z,26.40
2023-03-13T10:49:04.021Z,26.30
2023-03-13T10:51:38.452Z,26.40
2023-03-13T10:54:22.372Z,26.40
2023-03-13T10:56:50.896Z,26.40
2023-03-13T10:59:25.861Z,26.20
2023-03-13T11:01:57.718Z,26.00
2023-03-13T11:04:33.818Z,26.10
2023-03-13T11:07:06.756Z,25.90
2023-03-13T11:09:34.797Z,25.60
2023-03-13T11:12:06.799Z,25.60
2023-03-13T11:14:35.910Z,26.00
2023-03-13T11:17:12.138Z,25.70
2023-03-13T11:19:56.208Z,25.80
2023-03-13T11:22:38.575Z,25.60
2023-03-13T11:25:21.477Z,25.50
2023-03-13T11:27:59.706Z,25.50
2023-03-13T11:30:51.613Z,25.70
2023-03-13T11:33:30.358Z,25.50
2023-03-13T11:36:04.201Z,25.30
2023-03-13T11:38:38.464Z,25.20
2023-03-13T11:41:23.629Z,25.40
2023-03-13T11:44:21.062Z,25.40
2023-03-13T11:47:06.583Z,25.90
2023-03-13T11:49:58.808Z,25.30
2023-03-13T11:52:42.246Z,25.50
2023-03-13T11:55:39.335Z,25.70
2023-03-13T11:58:27.190Z,25.30
2023-03-13T12:01:01.370Z,25.50
2023-03-13T12:03:40.693Z,25.50
2023-03-13T12:06:28.518Z,25.60
2023-03-13T12:09:04.243Z,25.70
2023-03-13T12:11:43.413Z,25.70
2023-03-13T12:14:16.696Z,25.70
2023-03-13T12:16:49.283Z,25.90
2023-03-13T12:19:24.906Z,25.90
2023-03-13T12:21:55.829Z,26.10
2023-03-13T12:24:31.063Z,25.90
2023-03-13T12:27:04.879Z,25.90
2023-03-13T12:29:45.877Z,26.00
2023-03-13T12:32:20.666Z,26.10
2023-03-13T12:35:00.596Z,25.90
2023-03-13T12:37:38.836Z,26.30
2023-03-13T12:40:17.608Z,26.10
2023-03-13T12:42:56.570Z,26.20
2023-03-13T12:45:29.268Z,26.10
2023-03-13T12:48:23.287Z,26.20
2023-03-13T12:51:14.220Z,26.40
2023-03-13T12:54:14.170Z,26.20
2023-03-13T12:57:10.677Z,26.40
2023-03-13T12:59:42.990Z,25.80
2023-03-13T13:02:19.426Z,26.30
2023-03-13T13:04:50.740Z,25.90
2023-03-13T13:07:26.715Z,26.30
2023-03-13T13:10:16.796Z,26.20
2023-03-13T13:12:46.092Z,26.00
2023-03-13T13:15:21.523Z,26.00
2023-03-13T13:18:15.550Z,26.70
2023-03-13T13:20:51.172Z,26.50
2023-03-13T13:23:35.033Z,26.30
2023-03-13T13:26:47.510Z,26.90
2023-03-13T13:29:58.378Z,26.40
2023-03-13T13:32:45.891Z,26.60
2023-03-13T13:35:32.970Z,26.90
2023-03-13T13:38:36.521Z,27.10
2023-03-13T13:41:26.845Z,27.20
2023-03-13T13:44:22.763Z,27.00
2023-03-13T13:46:51.213Z,27.10
2023-03-13T13:49:22.308Z,27.10
2023-03-13T13:52:40.693Z,27.00
2023-03-13T13:55:32.909Z,27.30
2023-03-13T13:58:04.636Z,26.90
2023-03-13T14:00:41.880Z,27.10
2023-03-13T14:03:23.697Z,27.00
2023-03-13T14:05:57.179Z,27.00
2023-03-13T14:08:30.696Z,27.40
2023-03-13T14:11:15.657Z,27.30
2023-03-13T14:13:43.756Z,26.90
2023-03-13T14:16:24.675Z,27.10
2023-03-13T14:18:53.970Z,27.20
2023-03-13T14:21:25.349Z,27.00
2023-03-13T14:23:54.115Z,26.70
2023-03-13T14:26:25.219Z,26.80
2023-03-13T14:28:55.933Z,26.90
2023-03-13T14:31:28.805Z,27.10
2023-03-13T14:33:58.961Z,26.30
2023-03-13T14:36:29.196Z,27.00
2023-03-13T14:38:58.805Z,26.90
2023-03-13T14:41:33.801Z,27.20
2023-03-13T14:44:16.238Z,27.00
2023-03-13T14:46:45.354Z,27.30
2023-03-13T14:49:20.519Z,27.10
2023-03-13T14:52:00.180Z,27.30
2023-03-13T14:54:32.624Z,27.30
2023-03-13T14:57:06.624Z,27.50
2023-03-13T14:59:34.688Z,27.30
2023-03-13T15:02:15.326Z,27.30
2023-03-13T15:05:07.261Z,27.50
2023-03-13T15:07:41.949Z,27.50
2023-03-13T15:10:22.442Z,27.30
2023-03-13T15:12:51.258Z,27.60
2023-03-13T15:15:19.977Z,27.40
2023-03-13T15:17:48.070Z,27.70
2023-03-13T15:20:17.640Z,27.50
2023-03-13T15:22:47.306Z,27.20
2023-03-13T15:25:19.096Z,27.60
2023-03-13T15:27:47.468Z,27.50
2023-03-13T15:30:17.352Z,27.80
2023-03-13T15:32:46.821Z,27.50
2023-03-13T15:35:28.520Z,27.70
2023-03-13T15:37:59.126Z,27.70
2023-03-13T15:40:28.159Z,27.70
2023-03-13T15:42:56.848Z,27.40
2023-03-13T15:45:24.799Z,27.70
2023-03-13T15:47:52.899Z,27.50
2023-03-13T15:50:25.477Z,27.70
2023-03-13T15:52:54.099Z,27.80
2023-03-13T15:55:23.358Z,27.70
2023-03-13T15:57:51.901Z,27.40
2023-03-13T16:00:23.951Z,27.10
2023-03-13T16:02:52.021Z,27.20
2023-03-13T16:05:20.075Z,27.00
2023-03-13T16:07:48.080Z,26.60
2023-03-13T16:10:22.016Z,27.10
2023-03-13T16:12:52.590Z,27.00
2023-03-13T16:15:20.665Z,27.10
2023-03-13T16:17:48.686Z,26.90
2023-03-13T16:20:20.823Z,27.00
2023-03-13T16:22:49.664Z,27.10
2023-03-13T16:25:19.073Z,27.30
2023-03-13T16:27:47.012Z,27.30
2023-03-13T16:30:20.957Z,27.30
2023-03-13T16:32:49.002Z,27.40
2023-03-13T16:35:17.501Z,27.30
2023-03-13T16:37:45.695Z,27.50
2023-03-13T16:40:20.148Z,27.60
2023-03-13T16:42:48.375Z,27.50
2023-03-13T16:45:18.124Z,27.40
2023-03-13T16:47:46.788Z,27.50
2023-03-13T16:50:26.193Z,27.60
2023-03-13T16:52:55.240Z,27.60
2023-03-13T16:55:28.320Z,27.70
2023-03-13T16:57:56.862Z,28.10
2023-03-13T17:00:29.174Z,28.10
2023-03-13T17:02:58.078Z,28.20
2023-03-13T17:05:27.581Z,28.20
2023-03-13T17:07:55.734Z,28.30
2023-03-13T17:10:26.816Z,28.30
2023-03-13T17:12:54.826Z,28.20
2023-03-13T17:15:25.890Z,28.20
2023-03-13T17:17:54.784Z,28.50
2023-03-13T17:20:26.013Z,28.40
2023-03-13T17:22:56.075Z,28.80
2023-03-13T17:25:24.657Z,28.00
2023-03-13T17:27:52.835Z,27.50
2023-03-13T17:30:24.195Z,28.60
2023-03-13T17:32:54.002Z,28.70
2023-03-13T17:35:22.449Z,28.70
2023-03-13T17:37:50.840Z,28.70
2023-03-13T17:40:23.642Z,28.70
2023-03-13T17:42:52.141Z,29.70
2023-03-13T17:45:21.900Z,29.60
2023-03-13T17:47:50.284Z,29.60
2023-03-13T17:50:22.670Z,29.80
2023-03-13T17:52:50.727Z,29.60
2023-03-13T17:55:18.887Z,29.70
2023-03-13T17:57:48.236Z,29.60
2023-03-13T18:00:24.955Z,29.60
2023-03-13T18:02:53.118Z,29.50
2023-03-13T18:05:22.708Z,28.80
2023-03-13T18:07:51.024Z,29.10
2023-03-13T18:10:22.395Z,29.20
2023-03-13T18:12:51.235Z,29.20
2023-03-13T18:15:20.158Z,29.00
2023-03-13T18:17:48.255Z,29.40
2023-03-13T18:20:19.217Z,29.30
2023-03-13T18:22:48.523Z,29.30
2023-03-13T18:25:16.945Z,29.30
2023-03-13T18:27:45.299Z,29.30
2023-03-13T18:30:20.162Z,29.20
2023-03-13T18:32:48.464Z,29.20
2023-03-13T18:35:17.783Z,29.00
2023-03-13T18:37:48.628Z,29.20
2023-03-13T18:40:19.577Z,29.30
2023-03-13T18:42:47.674Z,29.00
2023-03-13T18:45:16.844Z,29.40
2023-03-13T18:47:45.042Z,29.20
2023-03-13T18:50:23.526Z,29.20
2023-03-13T18:52:55.163Z,29.20
2023-03-13T18:55:23.721Z,29.20
2023-03-13T18:57:52.042Z,29.00
2023-03-13T19:00:23.079Z,28.90
2023-03-13T19:02:51.376Z,29.40
2023-03-13T19:05:20.451Z,28.60
2023-03-13T19:07:48.639Z,29.20
2023-03-13T19:10:25.396Z,29.00
2023-03-13T19:12:55.202Z,29.00
2023-03-13T19:15:25.569Z,29.10
2023-03-13T19:17:55.945Z,29.00
2023-03-13T19:20:24.945Z,29.80
2023-03-13T19:22:55.060Z,29.10
2023-03-13T19:25:24.735Z,29.10
2023-03-13T19:27:52.816Z,29.20
2023-03-13T19:30:23.707Z,29.00
2023-03-13T19:32:52.565Z,29.40
2023-03-13T19:35:21.710Z,29.20
2023-03-13T19:37:50.386Z,29.30
2023-03-13T19:40:21.324Z,29.40
2023-03-13T19:42:50.644Z,29.60
2023-03-13T19:45:19.627Z,29.20
2023-03-13T19:47:47.802Z,30.00
2023-03-13T19:50:21.528Z,30.00
2023-03-13T19:52:49.549Z,29.80
2023-03-13T19:55:17.602Z,31.50
2023-03-13T19:57:45.651Z,32.00
2023-03-13T20:00:22.237Z,31.80
2023-03-13T20:02:52.013Z,32.40
2023-03-13T20:05:20.085Z,32.30
2023-03-13T20:07:48.673Z,31.00
2023-03-13T20:10:17.330Z,32.10
2023-03-13T20:12:45.329Z,32.80
2023-03-13T20:15:13.870Z,32.30
2023-03-13T20:17:43.228Z,32.90
2023-03-13T20:20:13.688Z,32.50
2023-03-13T20:22:41.930Z,33.40
2023-03-13T20:25:11.399Z,33.00
2023-03-13T20:27:39.997Z,33.40
2023-03-13T20:30:10.209Z,33.00
2023-03-13T20:32:46.219Z,33.10
2023-03-13T20:35:26.388Z,32.20
2023-03-13T20:37:54.622Z,31.90
2023-03-13T20:40:22.952Z,32.70
2023-03-13T20:42:50.960Z,32.50
2023-03-13T20:45:19.119Z,33.60
2023-03-13T20:47:47.103Z,33.30
2023-03-13T20:50:15.098Z,33.10
2023-03-13T20:52:44.483Z,32.30
2023-03-13T20:55:12.495Z,32.30
2023-03-13T20:57:40.607Z,31.90
2023-03-13T21:00:12.306Z,32.00
2023-03-13T21:02:40.283Z,32.90
2023-03-13T21:05:09.477Z,32.90
2023-03-13T21:07:37.462Z,32.80
2023-03-13T21:10:08.388Z,32.60
2023-03-13T21:12:37.132Z,32.60
2023-03-13T21:15:06.204Z,32.00
2023-03-13T21:17:34.715Z,32.50
2023-03-13T21:20:07.523Z,32.00
2023-03-13T21:22:35.487Z,31.30
2023-03-13T21:25:04.849Z,32.50
2023-03-13T21:27:34.983Z,32.20
2023-03-13T21:30:03.234Z,32.20
2023-03-13T21:32:31.476Z,32.20
2023-03-13T21:34:59.516Z,31.20
2023-03-13T21:37:28.256Z,31.50
2023-03-13T21:39:56.667Z,32.00
2023-03-13T21:42:25.810Z,31.70
2023-03-13T21:44:55.124Z,31.70
2023-03-13T21:47:24.828Z,31.70
2023-03-13T21:49:53.546Z,31.50
2023-03-13T21:52:22.613Z,31.70
2023-03-13T21:54:50.864Z,31.20
2023-03-13T21:57:18.854Z,32.00
2023-03-13T21:59:46.797Z,31.60
2023-03-13T22:02:17.476Z,31.00
2023-03-13T22:04:45.649Z,31.90
2023-03-13T22:07:13.624Z,32.10
2023-03-13T22:09:41.642Z,32.40
2023-03-13T22:12:09.669Z,32.00
2023-03-13T22:14:37.890Z,30.90
2023-03-13T22:17:05.892Z,32.20
2023-03-13T22:19:35.386Z,32.80
2023-03-13T22:22:03.349Z,31.80
2023-03-13T22:24:31.305Z,32.20
2023-03-13T22:26:59.273Z,32.50
2023-03-13T22:29:30.653Z,32.30
2023-03-13T22:31:59.160Z,32.50
2023-03-13T22:34:27.291Z,31.10
2023-03-13T22:36:56.595Z,32.50
2023-03-13T22:39:24.719Z,32.50
2023-03-13T22:41:52.707Z,32.50
2023-03-13T22:44:21.658Z,32.50
2023-03-13T22:46:49.642Z,32.60
2023-03-13T22:49:17.596Z,32.60
2023-03-13T22:51:45.577Z,32.30
2023-03-13T22:54:14.857Z,32.40
2023-03-13T22:56:42.839Z,31.60
2023-03-13T22:59:10.835Z,32.60
2023-03-13T23:01:38.828Z,32.50
2023-03-13T23:04:07.248Z,33.10
2023-03-13T23:06:35.261Z,32.80
2023-03-13T23:09:03.304Z,32.80
2023-03-13T23:11:32.952Z,33.10
2023-03-13T23:14:01.012Z,33.00
2023-03-13T23:16:29.184Z,32.10
2023-03-13T23:18:57.138Z,33.00
2023-03-13T23:21:25.136Z,33.00
2023-03-13T23:23:55.232Z,32.90
2023-03-13T23:26:23.852Z,33.10
2023-03-13T23:28:53.174Z,33.20
2023-03-13T23:31:22.801Z,33.70
2023-03-13T23:33:51.014Z,33.30
2023-03-13T23:36:20.050Z,33.40
2023-03-13T23:38:51.297Z,33.20
2023-03-13T23:41:20.701Z,33.20
2023-03-13T23:43:48.718Z,33.50
2023-03-13T23:46:19.632Z,32.50
2023-03-13T23:48:47.868Z,33.60
2023-03-13T23:51:15.829Z,33.50
2023-03-13T23:53:44.498Z,33.60
2023-03-13T23:56:13.396Z,33.60
2023-03-13T23:58:41.730Z,33.50
